»·PEaware :: ABX995 KRNO-KSMF

ABX995 :: KRNO-KSMF

FLIGHT INFORMATION

Flight Status: Arrived
Operator:
Airborne Express
More flights by this operator :: More flights under this callsign
Pilot: Max W. (2591)
Aircraft: BOEING 747-400 (WINGLETS)
(B744)
More flights by this aircraft type
Origin: KRNO Reno/Tahoe Intl
United States
Destination: KSMF Sacramento Intl
United States
More flights between these airports :: More routes between these airports
Route: +PVINE3 CRDDZ SLMMR SLMMR3
File this flight plan on PilotEdge
Remarks:
Altitude:
(Current/Filed)
26,000ft
Speed:
(Current/Filed)
450kts
Departed: 16-Mar-18 06:24 PM
Arrived: 16-Mar-18 06:51 PM
Distance/Time
Traveled:
98nm/0:27
Distance/Time
To Go:
Arrived

Flight Plot

Page will automatically refresh every two minutes.

Flight plan parsing failed; only flown route is shown


Map Options




Map Legend


Flown Route
Filed Route
Departure Airport
Arrival Airport
Navaid (VOR, NDB)
Fix

Horizontal Profiles

Position Reports

Time Latitude Longitude Heading Altitude Ground
Speed
16-Mar-18 17:57 39.510443 -119.775587 0 4428ft 0kts
16-Mar-18 17:58 39.510443 -119.775587 0 4428ft 0kts
16-Mar-18 17:59 39.510443 -119.775587 0 4428ft 0kts
16-Mar-18 18:00 39.510443 -119.775587 0 4428ft 0kts
16-Mar-18 18:01 39.510443 -119.775587 0 4428ft 0kts
16-Mar-18 18:02 39.510443 -119.775587 0 4428ft 0kts
16-Mar-18 18:03 39.510443 -119.775587 0 4428ft 0kts
16-Mar-18 18:04 39.510443 -119.775587 0 4428ft 0kts
16-Mar-18 18:05 39.510443 -119.775587 0 4428ft 0kts
16-Mar-18 18:06 39.510443 -119.775587 0 4428ft 0kts
16-Mar-18 18:07 39.510443 -119.775587 0 4428ft 0kts
16-Mar-18 18:08 39.510443 -119.775587 0 4428ft 0kts
16-Mar-18 18:09 39.510317 -119.775587 359 4428ft 2kts
16-Mar-18 18:10 39.509524 -119.775585 359 4428ft 1kts
16-Mar-18 18:11 39.509522 -119.775585 359 4428ft 0kts
16-Mar-18 18:12 39.509836 -119.775574 10 4428ft 14kts
16-Mar-18 18:13 39.509494 -119.773711 113 4428ft 4kts
16-Mar-18 18:14 39.509330 -119.773233 113 4428ft 0kts
16-Mar-18 18:15 39.509030 -119.772401 117 4428ft 8kts
16-Mar-18 18:16 39.505885 -119.771582 180 4428ft 18kts
16-Mar-18 18:17 39.500721 -119.771640 179 4428ft 17kts
16-Mar-18 18:18 39.495272 -119.771626 180 4428ft 24kts
16-Mar-18 18:19 39.490539 -119.771653 180 4428ft 13kts
16-Mar-18 18:20 39.486644 -119.771631 179 4428ft 10kts
16-Mar-18 18:21 39.483835 -119.771386 105 4428ft 7kts
16-Mar-18 18:22 39.484769 -119.769277 356 4428ft 3kts
16-Mar-18 18:23 39.491773 -119.769307 0 4430ft 150kts
16-Mar-18 18:24 39.547285 -119.768028 0 8585ft 243kts
16-Mar-18 18:25 39.615226 -119.807807 300 12953ft 279kts
16-Mar-18 18:26 39.651374 -119.901036 290 17378ft 304kts
16-Mar-18 18:27 39.632131 -119.998077 227 21989ft 296kts
16-Mar-18 18:28 39.571774 -120.075095 222 25600ft 313kts
16-Mar-18 18:29 39.507691 -120.153897 223 25804ft 319kts
16-Mar-18 18:30 39.443381 -120.233583 223 25805ft 319kts
16-Mar-18 18:31 39.379626 -120.313271 223 25806ft 319kts
16-Mar-18 18:32 39.315634 -120.392753 223 25562ft 318kts
16-Mar-18 18:33 39.252964 -120.470716 223 23725ft 307kts
16-Mar-18 18:34 39.191639 -120.546143 223 21792ft 301kts
16-Mar-18 18:35 39.130914 -120.620607 223 19177ft 317kts
16-Mar-18 18:36 39.071489 -120.705802 242 16661ft 320kts
16-Mar-18 18:37 39.046619 -120.795285 251 14756ft 318kts
16-Mar-18 18:38 39.014902 -120.918924 250 12339ft 307kts
16-Mar-18 18:39 38.987584 -121.022814 251 10146ft 305kts
16-Mar-18 18:40 38.965171 -121.108495 251 8418ft 301kts
16-Mar-18 18:41 38.937207 -121.214510 251 8071ft 227kts
16-Mar-18 18:42 38.920388 -121.277644 251 8079ft 222kts
16-Mar-18 18:43 38.900375 -121.352663 251 8082ft 222kts
16-Mar-18 18:44 38.888190 -121.427323 247 6852ft 210kts
16-Mar-18 18:45 38.856364 -121.489878 236 5393ft 212kts
16-Mar-18 18:46 38.826011 -121.546326 235 3389ft 178kts
16-Mar-18 18:47 38.796924 -121.595428 214 1651ft 170kts
16-Mar-18 18:48 38.752297 -121.600324 182 908ft 144kts
16-Mar-18 18:49 38.715754 -121.600839 182 233ft 129kts
16-Mar-18 18:50 38.692687 -121.599301 142 41ft 27kts
16-Mar-18 18:51 38.691746 -121.595978 281 41ft 7kts
16-Mar-18 18:52 38.691898 -121.596139 358 41ft 0kts
16-Mar-18 18:53 38.691899 -121.596139 358 41ft 0kts
16-Mar-18 18:54 38.691899 -121.596139 358 41ft 0kts
16-Mar-18 18:55 38.691899 -121.596139 358 41ft 0kts
16-Mar-18 18:56 38.691899 -121.596139 358 41ft 0kts
16-Mar-18 18:57 38.691899 -121.596139 358 41ft 0kts
16-Mar-18 18:58 38.691899 -121.596139 358 41ft 0kts
16-Mar-18 18:59 38.691899 -121.596139 358 41ft 0kts
16-Mar-18 19:00 38.691899 -121.596139 358 41ft 0kts
16-Mar-18 19:01 38.691899 -121.596139 358 41ft 0kts
16-Mar-18 19:02 38.691899 -121.596139 358 41ft 0kts
16-Mar-18 19:03 38.691899 -121.596139 358 41ft 0kts
16-Mar-18 19:04 38.691899 -121.596139 358 41ft 0kts

Navigation Log

Ident Type
Flight plan parsing failed, navigation log unavailable